KVPSKDTS

Guest
Details From KVPS - Eglin Afb
To KDTS - Destin Ft Walton Beach
Flight Number -
Tags Generated
Created
Modified
Stats Distance 5 nm / 8 km
Max Altitude 0 ft / 0 m
Waypoints 2
Social Downloads 1
Likes 0
Share VATSIM

Download

Looking for another format? Having issues loading an existing format? Contact us
Advertisement - Login to hide

Notes

Generated

Route

KVPS KDTS

ID Type Via Altitude Latitude Longitude Leg Dist Tot Dist Heading (true) Name
O KVPS APT - 0 ft / 0 m 30.47283˚ -86.51791˚ - 0 nm - -
O KDTS APT - 0 ft / 0 m 30.40549˚ -86.47634˚ 4 nm 4 nm 152° / 152° -

Altitude Profile

Advertisement - Login to hide

KVPS

Details ICAO KVPS (VPS)
Name EGLIN AFB
Region United States
Timezone America/Chicago (UTC-6.0)
Stats Elevation 87 ft / 27 m (AMSL)
Location 30.483467° -86.525097°
Runways 2
Magnetic Variation 3.265° W

METAR

KVPS 172322Z 11005KT 3SM BR SCT024 OVC033 18/18 A3013 RMK AO2A $

Decode

TAF

TAF AMD KVPS 172121Z 1721/1824 18012KT 4000 -SHRA SCT021 BKN030 OVC050 QNH3013INS BECMG 1801/1802 19010KT 4800 BR OVC005 QNH3014INS BECMG 1812/1813 23010KT 9999 NSW BKN010 OVC030 QNH3018INS BECMG 1817/1818 23010KT 9999 SCT010 BKN030 OVC055 QNH3019INS TX20/1721Z TN07/1812Z FCST BY USAF WX MET TECH

Decode

Departure Runways

ID Width Length Bearing (true) Bearing (mag) Surface Threshold Offset Overrun Length
01 300 ft / 91 m 10,067 ft / 3,069 m 12.14° 15.41° Asphalt 0 ft / 0 m 750 ft / 229 m
12 300 ft / 91 m 11,999 ft / 3,657 m 119.79° 123.06° Asphalt 0 ft / 0 m 1,000 ft / 305 m
19 300 ft / 91 m 10,067 ft / 3,069 m 192.14° 195.41° Asphalt 0 ft / 0 m 500 ft / 152 m
30 300 ft / 91 m 11,999 ft / 3,657 m 299.81° 303.08° Asphalt 0 ft / 0 m 1,000 ft / 305 m

KDTS

Details ICAO KDTS (DTS)
Name Destin Ft Walton Beach
Region United States
Timezone America/Chicago (UTC-6.0)
Stats Elevation 23 ft / 7 m (AMSL)
Location 30.400060° -86.471475°
Runways 1
Magnetic Variation 3.292° W

METAR

KDTS 172253Z 12009KT 3SM BR FEW024 BKN041 OVC080 20/18 A3013 RMK AO2 RAE40 SLP202 P0001 T02000178

Decode

TAF

Not found

Destination Runways

ID Width Length Bearing (true) Bearing (mag) Surface Threshold Offset Overrun Length
14 98 ft / 30 m 5,007 ft / 1,526 m 142.27° 145.56° Asphalt 0 ft / 0 m 200 ft / 61 m
32 98 ft / 30 m 5,007 ft / 1,526 m 322.28° 325.57° Asphalt 0 ft / 0 m 200 ft / 61 m

Popular Alternatives